Time;durP1;ratioP1;P1;durP2;ratioP2;P2;SDS_P1;SDS_P2;PMS_P1;PMS_P2;Temp;Humidity;BMP_temperature;BMP_pressure;BME280_temperature;BME280_humidity;BME280_pressure;Samples;Min_cycle;Max_cycle;Signal;HPM_P1;HPM_P2
2022/03/21 00:01:30;;;;;;;26.65;16.05;;;9.10;1.00;;;;;;5093409;28;20423;-61
2022/03/21 00:03:56;;;;;;;26.93;15.97;;;9.10;1.00;;;;;;5093089;28;20418;-61
2022/03/21 00:06:23;;;;;;;23.02;15.52;;;9.10;1.00;;;;;;5092812;28;20430;-60
2022/03/21 00:08:50;;;;;;;24.80;16.45;;;9.10;1.00;;;;;;5093072;28;20459;-61
2022/03/21 00:11:17;;;;;;;27.17;15.88;;;8.90;1.00;;;;;;5092887;28;20427;-60
2022/03/21 00:13:45;;;;;;;27.33;16.50;;;8.90;1.00;;;;;;5092791;28;20451;-61
2022/03/21 00:16:12;;;;;;;26.02;17.02;;;8.90;1.00;;;;;;5092523;28;20511;-62
2022/03/21 00:18:39;;;;;;;22.73;15.90;;;9.00;1.00;;;;;;5092927;28;20850;-60
2022/03/21 00:21:06;;;;;;;23.95;16.23;;;9.10;1.00;;;;;;5092842;28;20416;-62
2022/03/21 00:23:34;;;;;;;27.50;15.63;;;9.10;1.00;;;;;;5092659;28;20467;-60
2022/03/21 00:26:01;;;;;;;25.73;15.45;;;9.00;1.00;;;;;;5092150;28;20433;-61
2022/03/21 00:28:28;;;;;;;25.17;16.05;;;8.90;99.90;;;;;;5092765;28;20753;-62
2022/03/21 00:30:56;;;;;;;22.55;15.48;;;8.90;99.90;;;;;;5092720;28;20410;-62
2022/03/21 00:33:23;;;;;;;23.55;15.38;;;8.80;1.00;;;;;;5092527;28;20497;-62
2022/03/21 00:35:50;;;;;;;22.67;15.43;;;8.90;1.00;;;;;;5092591;28;20406;-61
2022/03/21 00:38:19;;;;;;;24.75;16.40;;;8.90;1.00;;;;;;5092312;28;20497;-63
2022/03/21 00:40:46;;;;;;;24.13;15.60;;;9.00;99.90;;;;;;5092100;28;20414;-62
2022/03/21 00:43:15;;;;;;;26.42;16.52;;;9.00;99.90;;;;;;5092480;28;20406;-62
2022/03/21 00:45:41;;;;;;;25.02;16.60;;;9.10;99.90;;;;;;5092078;28;20524;-61
2022/03/21 00:48:10;;;;;;;29.10;16.65;;;9.20;99.90;;;;;;5092021;28;20414;-62
2022/03/21 00:50:36;;;;;;;25.30;16.00;;;9.20;99.90;;;;;;5092119;28;20445;-62
2022/03/21 00:53:03;;;;;;;27.48;16.42;;;9.30;99.90;;;;;;5092034;28;20880;-60
2022/03/21 00:55:30;;;;;;;24.75;15.52;;;9.40;99.90;;;;;;5092202;28;20436;-60
2022/03/21 00:57:57;;;;;;;23.17;15.65;;;9.30;99.90;;;;;;5091816;28;21068;-60
2022/03/21 01:00:26;;;;;;;25.77;15.60;;;9.30;99.90;;;;;;5092221;28;20493;-61
2022/03/21 01:02:54;;;;;;;22.17;15.50;;;9.40;99.90;;;;;;5091866;28;20414;-61
2022/03/21 01:05:23;;;;;;;23.27;15.15;;;9.40;99.90;;;;;;5091859;28;20425;-61
2022/03/21 01:07:51;;;;;;;23.02;15.75;;;9.30;99.90;;;;;;5090407;28;20493;-61
2022/03/21 01:10:20;;;;;;;23.77;15.63;;;9.20;99.90;;;;;;5091887;28;20442;-59
2022/03/21 01:12:47;;;;;;;25.45;15.98;;;9.20;99.90;;;;;;5092028;28;20455;-61
2022/03/21 01:15:16;;;;;;;24.67;16.35;;;9.10;99.90;;;;;;5091620;28;20782;-61
2022/03/21 01:17:44;;;;;;;22.40;15.48;;;9.10;99.90;;;;;;5091560;28;20417;-60
2022/03/21 01:20:12;;;;;;;24.13;15.63;;;9.10;99.90;;;;;;5091421;28;20552;-61
2022/03/21 01:22:40;;;;;;;25.58;16.55;;;9.10;99.90;;;;;;5091601;28;20902;-59
2022/03/21 01:25:08;;;;;;;26.30;16.65;;;9.00;99.90;;;;;;5091278;28;20429;-61
2022/03/21 01:27:35;;;;;;;25.35;17.05;;;9.00;99.90;;;;;;5091333;28;20842;-60
2022/03/21 01:30:02;;;;;;;24.83;16.40;;;8.90;99.90;;;;;;5091537;28;20806;-61
2022/03/21 01:32:28;;;;;;;25.58;16.23;;;9.00;99.90;;;;;;5091324;28;20406;-57
2022/03/21 01:34:55;;;;;;;28.00;16.42;;;8.80;99.90;;;;;;5091171;28;20410;-58
2022/03/21 01:37:22;;;;;;;26.35;17.05;;;8.90;99.90;;;;;;5090904;28;20467;-60
2022/03/21 01:39:50;;;;;;;28.77;17.08;;;8.80;99.90;;;;;;5090955;28;20807;-60
2022/03/21 01:42:17;;;;;;;26.88;16.35;;;8.80;99.90;;;;;;5091255;28;20443;-59
2022/03/21 01:44:43;;;;;;;26.23;16.30;;;8.90;99.90;;;;;;5091098;28;20467;-57
2022/03/21 01:47:10;;;;;;;26.17;16.15;;;9.00;99.90;;;;;;5090848;28;20414;-59
2022/03/21 01:49:37;;;;;;;25.15;16.33;;;9.10;99.90;;;;;;5091158;28;20458;-60
2022/03/21 01:52:05;;;;;;;26.83;16.65;;;9.10;99.90;;;;;;5091228;28;20432;-58
2022/03/21 01:57:17;;;;;;;29.70;17.15;;;9.10;99.90;;;;;;5090718;28;20394;-58
2022/03/21 01:59:44;;;;;;;27.58;18.17;;;8.90;99.90;;;;;;5090821;28;20419;-60
2022/03/21 02:02:12;;;;;;;28.90;17.90;;;8.80;99.90;;;;;;5090845;28;20459;-60
2022/03/21 02:04:38;;;;;;;27.10;17.10;;;8.70;99.90;;;;;;5090913;28;20464;-60
2022/03/21 02:07:06;;;;;;;25.80;16.35;;;8.80;99.90;;;;;;5090365;28;20417;-57
2022/03/21 02:09:32;;;;;;;27.17;16.98;;;8.90;99.90;;;;;;5090899;28;20409;-58
2022/03/21 02:11:59;;;;;;;26.95;16.65;;;9.00;99.90;;;;;;5090594;28;20406;-57
2022/03/21 02:14:27;;;;;;;25.50;16.60;;;9.00;99.90;;;;;;5090575;28;20479;-59
2022/03/21 02:16:54;;;;;;;25.50;16.53;;;9.00;99.90;;;;;;5090721;28;20493;-57
2022/03/21 02:19:27;;;;;;;26.60;15.85;;;9.10;99.90;;;;;;5090523;28;20406;-57
2022/03/21 02:22:18;;;;;;;25.73;15.45;;;9.20;99.90;;;;;;5090708;28;20414;-58
2022/03/21 02:24:57;;;;;;;26.80;15.88;;;9.20;99.90;;;;;;5090352;28;20945;-58
2022/03/21 02:27:27;;;;;;;22.20;15.15;;;9.30;81.70;;;;;;5090505;28;20791;-57
2022/03/21 02:29:55;;;;;;;22.40;15.02;;;9.30;20.30;;;;;;5091120;28;20414;-61
2022/03/21 02:32:22;;;;;;;21.80;14.93;;;9.10;3.90;;;;;;5091660;28;20460;-61
2022/03/21 02:34:49;;;;;;;24.33;15.73;;;9.10;4.10;;;;;;5091086;28;20421;-59
2022/03/21 02:37:18;;;;;;;24.52;15.10;;;9.10;31.70;;;;;;5090180;28;20409;-59
2022/03/21 02:39:45;;;;;;;28.58;16.52;;;9.10;42.30;;;;;;5090777;28;20422;-55
2022/03/21 02:42:13;;;;;;;25.38;16.70;;;8.80;48.00;;;;;;5090417;28;20418;-58
2022/03/21 02:44:41;;;;;;;27.38;16.20;;;8.80;96.60;;;;;;5090710;28;20826;-61
2022/03/21 02:47:09;;;;;;;31.17;16.98;;;8.60;99.90;;;;;;5091203;28;20426;-61
2022/03/21 02:49:36;;;;;;;31.25;17.48;;;8.30;99.90;;;;;;5091627;28;20504;-61
2022/03/21 02:52:05;;;;;;;29.17;16.95;;;8.10;99.90;;;;;;5089726;28;20475;-60
2022/03/21 02:54:33;;;;;;;25.60;16.45;;;7.90;1.00;;;;;;5090520;28;20409;-60
2022/03/21 02:57:00;;;;;;;29.65;16.85;;;8.00;1.00;;;;;;5090296;28;20430;-59
2022/03/21 02:59:28;;;;;;;32.55;18.55;;;8.10;1.00;;;;;;5090269;28;20410;-59
2022/03/21 03:01:56;;;;;;;28.52;17.38;;;8.30;1.00;;;;;;5090338;28;20471;-58
2022/03/21 03:04:23;;;;;;;29.27;17.67;;;8.30;1.00;;;;;;5089920;28;20405;-59
2022/03/21 03:06:49;;;;;;;27.10;17.40;;;8.30;1.00;;;;;;5090158;28;20483;-57
2022/03/21 03:09:16;;;;;;;30.65;17.48;;;8.30;1.00;;;;;;5090043;28;20546;-56
2022/03/21 03:11:43;;;;;;;;;;;8.40;1.00;;;;;;5092022;28;20044;-56
2022/03/21 03:14:09;;;;;;;;;;;8.40;99.90;;;;;;5091913;28;20431;-59
2022/03/21 03:16:36;;;;;;;;;;;8.30;1.00;;;;;;5091419;28;20363;-61
2022/03/21 03:19:04;;;;;;;;;;;8.10;1.00;;;;;;5091640;28;19923;-54
2022/03/21 03:21:34;;;;;;;;;;;8.00;1.00;;;;;;5091752;28;19923;-54
2022/03/21 03:24:01;;;;;;;;;;;7.80;1.00;;;;;;5091683;28;20332;-55
2022/03/21 03:26:28;;;;;;;;;;;7.70;1.00;;;;;;5091485;28;20332;-57
2022/03/21 03:28:54;;;;;;;;;;;7.60;44.20;;;;;;5091748;28;19946;-60
2022/03/21 03:31:21;;;;;;;;;;;7.40;99.90;;;;;;5094979;28;19920;-58
2022/03/21 03:33:47;;;;;;;;;;;7.30;99.90;;;;;;5095454;28;19920;-56
2022/03/21 03:36:16;;;;;;;;;;;7.20;99.90;;;;;;5095255;28;19966;-60
2022/03/21 03:38:42;;;;;;;;;;;7.20;99.90;;;;;;5095259;28;20011;-60
2022/03/21 03:41:09;;;;;;;;;;;7.10;99.90;;;;;;5095311;28;20338;-59
2022/03/21 03:43:36;;;;;;;;;;;7.10;99.90;;;;;;5095168;28;20370;-61
2022/03/21 03:46:03;;;;;;;;;;;7.00;99.90;;;;;;5094458;28;19923;-60
2022/03/21 03:48:29;;;;;;;;;;;7.00;99.90;;;;;;5095345;28;19973;-58
2022/03/21 03:50:56;;;;;;;;;;;6.90;99.90;;;;;;5094811;28;20439;-59
2022/03/21 03:53:24;;;;;;;29.42;17.60;;;6.90;99.90;;;;;;5093382;28;20415;-60
2022/03/21 03:55:51;;;;;;;33.13;18.37;;;6.90;99.90;;;;;;5092983;28;20583;-60
2022/03/21 03:58:18;;;;;;;34.67;19.40;;;7.00;99.90;;;;;;5093195;28;20491;-60
2022/03/21 04:00:46;;;;;;;31.60;18.70;;;7.10;99.90;;;;;;5093218;28;20948;-60
2022/03/21 04:05:57;;;;;;;30.00;19.25;;;7.20;99.90;;;;;;5092623;28;20556;-61
2022/03/21 04:08:26;;;;;;;30.42;19.27;;;7.20;99.90;;;;;;5092909;28;20406;-61
2022/03/21 04:10:52;;;;;;;34.33;19.92;;;7.30;99.90;;;;;;5092965;28;20540;-61
2022/03/21 04:13:19;;;;;;;32.25;19.88;;;7.40;99.90;;;;;;5092803;28;20475;-61
2022/03/21 04:15:45;;;;;;;34.60;20.02;;;7.50;99.90;;;;;;5093107;28;20455;-61
2022/03/21 04:18:12;;;;;;;32.67;19.90;;;7.50;61.00;;;;;;5092834;28;20467;-62
2022/03/21 04:20:40;;;;;;;36.22;21.20;;;7.60;92.00;;;;;;5092482;28;20418;-59
2022/03/21 04:23:09;;;;;;;35.53;21.40;;;7.40;99.90;;;;;;5092688;28;20421;-61
2022/03/21 04:25:37;;;;;;;31.30;21.20;;;7.40;99.90;;;;;;5092144;28;20422;-61
2022/03/21 04:28:08;;;;;;;36.17;22.40;;;7.40;99.90;;;;;;5092736;28;20417;-61
2022/03/21 04:30:35;;;;;;;32.03;21.02;;;7.50;99.90;;;;;;5092832;28;20493;-61
2022/03/21 04:33:01;;;;;;;33.05;21.20;;;7.60;99.90;;;;;;5092513;28;20485;-62
2022/03/21 04:35:28;;;;;;;36.33;21.35;;;7.70;99.90;;;;;;5092372;28;20908;-62
2022/03/21 04:37:55;;;;;;;32.08;20.80;;;7.70;99.90;;;;;;5091919;28;20888;-61
2022/03/21 04:40:23;;;;;;;32.53;20.33;;;7.70;99.90;;;;;;5092575;28;20420;-61
2022/03/21 04:42:51;;;;;;;33.00;21.10;;;7.60;99.90;;;;;;5092429;28;20440;-60
2022/03/21 04:45:18;;;;;;;34.35;22.25;;;7.60;99.90;;;;;;5092310;28;20406;-60
2022/03/21 04:47:45;;;;;;;32.80;21.05;;;7.50;99.90;;;;;;5091940;28;20428;-61
2022/03/21 04:50:12;;;;;;;34.00;20.92;;;7.50;99.90;;;;;;5091973;28;20888;-61
2022/03/21 04:52:39;;;;;;;31.27;20.67;;;7.50;99.90;;;;;;5092041;28;20414;-62
2022/03/21 04:55:07;;;;;;;30.38;20.65;;;7.30;99.90;;;;;;5091848;28;20910;-59
2022/03/21 04:57:34;;;;;;;32.33;21.27;;;7.30;99.90;;;;;;5091915;28;20417;-60
2022/03/21 05:00:03;;;;;;;31.83;21.50;;;7.40;99.90;;;;;;5091985;28;20447;-62
2022/03/21 05:02:29;;;;;;;33.63;21.60;;;7.40;99.90;;;;;;5092003;28;20417;-61
2022/03/21 05:04:56;;;;;;;37.40;21.67;;;7.40;99.90;;;;;;5091849;28;20883;-58
2022/03/21 05:07:25;;;;;;;34.63;22.55;;;7.30;61.70;;;;;;5091145;28;20965;-59
2022/03/21 05:09:52;;;;;;;37.47;22.98;;;7.20;15.60;;;;;;5091791;28;20888;-61
2022/03/21 05:12:20;;;;;;;34.50;23.15;;;7.20;1.00;;;;;;5091928;28;20791;-61
2022/03/21 05:14:47;;;;;;;37.28;24.70;;;7.20;1.00;;;;;;5091836;28;20776;-60
2022/03/21 05:17:17;;;;;;;36.70;24.57;;;7.20;1.00;;;;;;5091258;28;20482;-62
2022/03/21 05:19:44;;;;;;;39.45;23.77;;;7.10;38.20;;;;;;5091534;28;20421;-61
2022/03/21 05:22:11;;;;;;;34.83;22.85;;;7.10;98.50;;;;;;5091443;28;20952;-60
2022/03/21 05:35:52;;;;;;;30.03;17.83;;;7.00;1.00;;;;;;5092792;28;20262;-61
2022/03/21 05:35:57;;;;;;;34.53;21.92;;;6.80;1.00;;;;;;5090971;28;20413;-61
2022/03/21 05:38:25;;;;;;;36.38;22.50;;;6.80;1.00;;;;;;5091717;28;20761;-61
2022/03/21 05:40:56;;;;;;;37.97;23.13;;;6.70;1.00;;;;;;5091087;28;20524;-59
2022/03/21 05:43:23;;;;;;;36.53;21.90;;;6.80;1.00;;;;;;5091508;28;20416;-59
2022/03/21 05:45:51;;;;;;;34.13;19.00;;;6.70;1.00;;;;;;5092424;28;20228;-59
2022/03/21 05:51:05;;;;;;;33.08;22.42;;;6.50;99.90;;;;;;5090841;28;20448;-58
2022/03/21 05:53:32;;;;;;;36.53;22.52;;;6.50;99.90;;;;;;5090398;28;20413;-61
2022/03/21 05:56:00;;;;;;;35.53;22.20;;;6.50;99.90;;;;;;5090597;28;20413;-60
2022/03/21 05:58:26;;;;;;;34.58;22.02;;;6.50;99.90;;;;;;5090606;28;20424;-60
2022/03/21 06:00:53;;;;;;;35.03;22.33;;;6.60;99.90;;;;;;5091072;28;20515;-59
2022/03/21 06:03:22;;;;;;;35.20;22.20;;;6.60;78.40;;;;;;5090834;28;20953;-58
2022/03/21 06:05:49;;;;;;;32.92;21.27;;;6.60;19.90;;;;;;5090154;28;20471;-58
2022/03/21 06:08:16;;;;;;;31.80;22.07;;;6.60;1.00;;;;;;5090289;28;21095;-56
2022/03/21 06:10:42;;;;;;;33.40;21.65;;;6.70;1.00;;;;;;5090341;28;20410;-59
2022/03/21 06:13:09;;;;;;;33.42;20.95;;;6.70;1.00;;;;;;5090836;28;20414;-61
2022/03/21 06:15:36;;;;;;;32.78;22.10;;;6.70;1.00;;;;;;5090556;28;20413;-61
2022/03/21 06:18:09;;;;;;;32.03;20.50;;;6.70;1.00;;;;;;5089802;28;20872;-59
2022/03/21 06:20:39;;;;;;;33.10;21.13;;;6.60;1.00;;;;;;5090550;28;20778;-60
2022/03/21 06:23:06;;;;;;;35.40;22.50;;;6.50;1.00;;;;;;5090389;28;20418;-57
2022/03/21 06:25:33;;;;;;;35.83;23.55;;;6.50;1.00;;;;;;5085234;28;20904;-64
2022/03/21 06:28:06;;;;;;;31.75;21.20;;;6.40;1.00;;;;;;5086925;28;20483;-65
2022/03/21 06:30:33;;;;;;;34.42;22.30;;;6.50;15.80;;;;;;5090339;28;20429;-63
2022/03/21 06:32:59;;;;;;;32.85;21.88;;;6.60;1.00;;;;;;5090039;28;20414;-62
2022/03/21 06:35:26;;;;;;;31.77;21.10;;;6.70;1.00;;;;;;5089420;28;20413;-63
2022/03/21 06:37:54;;;;;;;32.47;22.05;;;6.80;1.00;;;;;;5089555;28;20555;-62
2022/03/21 06:40:23;;;;;;;31.10;20.33;;;6.90;1.00;;;;;;5089567;28;20436;-60
2022/03/21 06:42:50;;;;;;;34.88;22.15;;;6.90;1.00;;;;;;5089906;28;20413;-62
2022/03/21 06:45:17;;;;;;;32.17;21.85;;;6.90;1.00;;;;;;5070927;28;20509;-63
2022/03/21 06:47:43;;;;;;;32.65;22.08;;;7.00;1.00;;;;;;5087248;28;20904;-63
2022/03/21 06:50:10;;;;;;;35.00;22.17;;;7.00;1.00;;;;;;5090798;28;20432;-62
2022/03/21 06:52:39;;;;;;;32.53;21.90;;;7.20;7.30;;;;;;5089815;28;20893;-62
2022/03/21 06:55:09;;;;;;;32.27;21.77;;;7.40;30.30;;;;;;5089740;28;20418;-62
2022/03/21 06:57:36;;;;;;;28.92;19.67;;;7.50;6.60;;;;;;5089148;28;20483;-63
2022/03/21 07:00:05;;;;;;;31.20;19.43;;;7.80;99.90;;;;;;5090657;28;20413;-63
2022/03/21 07:02:32;;;;;;;29.85;20.70;;;8.00;99.90;;;;;;5093533;28;20791;-64
2022/03/21 07:04:59;;;;;;;24.23;17.20;;;8.20;1.00;;;;;;5093730;28;20428;-62
2022/03/21 07:07:25;;;;;;;23.15;15.50;;;8.30;1.00;;;;;;5094389;28;20486;-60
2022/03/21 07:09:52;;;;;;;20.80;14.50;;;8.20;99.90;;;;;;5093413;28;20416;-60
2022/03/21 07:12:20;;;;;;;23.25;15.43;;;8.40;99.90;;;;;;5093100;28;20895;-60
2022/03/21 07:14:48;;;;;;;22.75;15.05;;;8.60;99.90;;;;;;5093862;28;20825;-62
2022/03/21 07:17:18;;;;;;;22.85;15.02;;;8.80;99.90;;;;;;5092650;28;20409;-62
2022/03/21 07:19:45;;;;;;;20.65;14.95;;;9.00;99.90;;;;;;5093023;28;20467;-60
2022/03/21 07:22:12;;;;;;;20.35;14.48;;;9.30;99.90;;;;;;5093290;28;20436;-62
2022/03/21 07:24:38;;;;;;;22.83;14.40;;;9.50;99.90;;;;;;5093113;28;20410;-61
2022/03/21 07:27:05;;;;;;;21.25;14.27;;;9.70;99.90;;;;;;5092456;28;20487;-60
2022/03/21 07:29:33;;;;;;;19.57;14.00;;;9.80;99.90;;;;;;5093089;28;20635;-63
2022/03/21 07:32:00;;;;;;;22.50;14.40;;;10.00;99.90;;;;;;5093265;28;20474;-63
2022/03/21 07:34:27;;;;;;;19.17;13.67;;;9.90;99.90;;;;;;5093052;28;20414;-58
2022/03/21 07:36:54;;;;;;;19.50;13.98;;;10.10;99.90;;;;;;5092347;28;20410;-61
2022/03/21 07:39:21;;;;;;;22.75;14.75;;;10.20;99.70;;;;;;5092798;28;20515;-62
2022/03/21 07:41:47;;;;;;;19.70;14.25;;;10.20;97.40;;;;;;5093328;28;20424;-59
2022/03/21 07:47:17;;;;;;;20.75;15.02;;;10.40;99.70;;;;;;5093333;28;21056;-61
2022/03/21 07:47:17;;;;;;;20.98;14.40;;;10.50;99.90;;;;;;5092420;28;20848;-60
2022/03/21 07:49:45;;;;;;;23.23;15.05;;;10.70;99.40;;;;;;5092286;28;20479;-62
2022/03/21 07:52:12;;;;;;;20.45;14.70;;;10.90;99.90;;;;;;5092883;28;20416;-65
2022/03/21 07:54:39;;;;;;;;;;;10.60;93.50;;;;;;5094145;28;20145;-62
2022/03/21 07:57:06;;;;;;;19.00;13.65;;;10.70;93.60;;;;;;5092135;28;20789;-62
2022/03/21 07:59:33;;;;;;;20.55;14.25;;;10.80;92.60;;;;;;5092543;28;20421;-63
2022/03/21 08:01:59;;;;;;;20.17;14.32;;;11.00;92.20;;;;;;5092427;28;20413;-64
2022/03/21 08:04:28;;;;;;;20.67;14.70;;;11.20;92.70;;;;;;5092513;28;20410;-63
2022/03/21 08:06:57;;;;;;;21.73;12.83;;;11.30;92.60;;;;;;5092898;28;20204;-64
2022/03/21 08:09:27;;;;;;;20.10;14.73;;;11.40;92.70;;;;;;5092654;28;20788;-64
2022/03/21 08:11:54;;;;;;;21.40;14.80;;;11.30;91.30;;;;;;5092772;28;20454;-64
2022/03/21 08:14:21;;;;;;;20.15;14.13;;;11.30;90.70;;;;;;5092308;28;21989;-64
2022/03/21 08:16:48;;;;;;;20.55;14.43;;;11.50;91.90;;;;;;5091473;28;20421;-64
2022/03/21 08:19:16;;;;;;;18.83;13.93;;;11.70;91.90;;;;;;5092193;28;20471;-65
2022/03/21 08:21:44;;;;;;;22.25;15.27;;;11.70;91.90;;;;;;5092337;28;20791;-66
2022/03/21 08:24:12;;;;;;;20.65;14.77;;;11.90;92.40;;;;;;5092454;28;20485;-62
2022/03/21 08:26:40;;;;;;;21.88;14.75;;;12.10;93.90;;;;;;5091351;28;20425;-68
2022/03/21 08:29:06;;;;;;;20.77;13.80;;;12.20;93.60;;;;;;5092243;28;20472;-61
2022/03/21 08:31:33;;;;;;;;;;;12.20;92.30;;;;;;5093123;28;20135;-64
2022/03/21 08:33:59;;;;;;;20.05;14.27;;;12.30;91.20;;;;;;5092194;28;20465;-64
2022/03/21 08:36:27;;;;;;;20.73;12.10;;;12.10;87.30;;;;;;5092810;28;20621;-63
2022/03/21 08:38:55;;;;;;;20.38;13.77;;;12.10;90.00;;;;;;5092022;28;20449;-62
2022/03/21 08:41:22;;;;;;;20.58;14.52;;;12.20;90.50;;;;;;5092103;28;20417;-62
2022/03/21 08:43:49;;;;;;;22.03;13.93;;;12.30;91.00;;;;;;5091677;28;20413;-65
2022/03/21 08:46:16;;;;;;;18.83;14.07;;;12.50;90.80;;;;;;5091034;28;20479;-63
2022/03/21 08:51:27;;;;;;;20.15;14.30;;;12.70;93.70;;;;;;5091656;28;20408;-61
2022/03/21 08:53:55;;;;;;;20.05;14.45;;;12.70;91.10;;;;;;5091794;28;20414;-61
2022/03/21 08:56:22;;;;;;;19.98;14.25;;;12.70;90.30;;;;;;5090535;28;20834;-64
2022/03/21 08:58:49;;;;;;;23.83;12.60;;;12.50;88.50;;;;;;5092684;28;20223;-66
2022/03/21 09:01:16;;;;;;;21.98;14.20;;;12.70;89.00;;;;;;5091562;28;21020;-65
2022/03/21 09:03:43;;;;;;;19.70;13.77;;;12.70;88.90;;;;;;5091348;28;20444;-66
2022/03/21 09:06:10;;;;;;;18.80;13.67;;;12.70;88.10;;;;;;5090749;28;20413;-67
2022/03/21 09:08:37;;;;;;;21.00;12.67;;;12.90;89.30;;;;;;5091528;28;20220;-64
2022/03/21 09:11:05;;;;;;;21.35;14.13;;;12.90;90.40;;;;;;5090983;28;20839;-64
2022/03/21 09:13:32;;;;;;;18.85;13.77;;;13.00;90.00;;;;;;5091886;28;20417;-67
2022/03/21 09:15:59;;;;;;;20.45;14.52;;;13.30;92.20;;;;;;5090533;28;20787;-65
2022/03/21 09:18:26;;;;;;;21.25;13.95;;;13.40;98.40;;;;;;5091943;28;20449;-65
2022/03/21 09:20:52;;;;;;;20.57;14.63;;;13.70;92.70;;;;;;5090966;28;20442;-65
2022/03/21 09:23:19;;;;;;;21.97;14.23;;;13.70;92.80;;;;;;5091671;28;20487;-63
2022/03/21 09:25:46;;;;;;;20.10;15.07;;;13.90;93.20;;;;;;5090441;28;20413;-63
2022/03/21 09:28:14;;;;;;;20.05;14.18;;;14.00;95.40;;;;;;5089780;28;20761;-62
2022/03/21 09:30:41;;;;;;;19.50;14.57;;;14.00;94.40;;;;;;5091148;28;20471;-63
2022/03/21 09:33:09;;;;;;;20.85;14.60;;;14.20;95.40;;;;;;5090411;28;20411;-62
2022/03/21 09:35:37;;;;;;;22.75;15.40;;;14.40;99.30;;;;;;5090624;28;20895;-63
2022/03/21 09:38:04;;;;;;;21.63;14.60;;;14.50;98.60;;;;;;5090390;28;20417;-64
2022/03/21 09:40:30;;;;;;;22.50;15.35;;;14.60;98.60;;;;;;5090410;28;21020;-65
2022/03/21 09:42:59;;;;;;;22.52;14.73;;;14.50;98.00;;;;;;5090618;28;20957;-65
2022/03/21 09:45:27;;;;;;;20.23;14.88;;;14.50;99.90;;;;;;5089837;28;20896;-63
2022/03/21 09:48:12;;;;;;;21.77;15.18;;;14.40;95.10;;;;;;5090146;28;20429;-65
2022/03/21 09:50:42;;;;;;;22.38;15.10;;;14.50;95.90;;;;;;5090305;28;20496;-61
2022/03/21 09:53:10;;;;;;;21.45;15.02;;;14.70;95.30;;;;;;5090539;28;20410;-61
2022/03/21 09:55:36;;;;;;;20.65;14.73;;;14.90;97.50;;;;;;5090172;28;20443;-67
2022/03/21 09:58:03;;;;;;;20.83;14.98;;;15.00;99.20;;;;;;5089696;28;20459;-63
2022/03/21 10:00:32;;;;;;;23.45;14.95;;;14.90;98.20;;;;;;5090493;28;20420;-63
2022/03/21 10:02:59;;;;;;;20.77;14.50;;;15.10;99.30;;;;;;5089746;28;20497;-64
2022/03/21 10:05:37;;;;;;;20.52;15.15;;;15.40;99.90;;;;;;5089705;28;20426;-63
2022/03/21 10:08:27;;;;;;;19.58;14.93;;;15.50;99.90;;;;;;5090073;28;20503;-63
2022/03/21 10:10:56;;;;;;;20.15;14.85;;;15.40;99.50;;;;;;5085807;28;20526;-63
2022/03/21 10:13:26;;;;;;;20.98;14.65;;;15.70;99.90;;;;;;5090314;28;20418;-63
2022/03/21 10:16:09;;;;;;;18.90;14.25;;;15.90;99.90;;;;;;5089068;28;20818;-63
2022/03/21 10:18:36;;;;;;;23.58;15.60;;;15.90;99.90;;;;;;5090124;28;20758;-64
2022/03/21 10:21:11;;;;;;;22.67;15.48;;;16.00;99.90;;;;;;5090162;28;20417;-61
2022/03/21 10:23:38;;;;;;;21.75;14.50;;;15.80;99.90;;;;;;5089481;28;20465;-60
2022/03/21 10:26:24;;;;;;;21.02;14.60;;;15.60;99.90;;;;;;5089181;28;20440;-64
2022/03/21 10:28:54;;;;;;;21.27;14.80;;;15.90;99.90;;;;;;5089529;28;20426;-63
2022/03/21 10:31:36;;;;;;;22.48;14.68;;;16.20;99.90;;;;;;5089661;28;20497;-63
2022/03/21 10:34:05;;;;;;;22.08;15.32;;;16.10;99.90;;;;;;5089769;28;20489;-63
2022/03/21 10:36:32;;;;;;;21.17;14.57;;;16.20;99.90;;;;;;5089043;28;20417;-63
2022/03/21 10:39:08;;;;;;;24.25;15.13;;;16.20;99.90;;;;;;5091440;28;20431;-63
2022/03/21 10:41:35;;;;;;;20.60;14.75;;;16.20;99.90;;;;;;5093815;28;20493;-63
2022/03/21 10:44:02;;;;;;;22.15;14.73;;;16.40;99.90;;;;;;5094077;28;20525;-63
2022/03/21 10:46:29;;;;;;;24.98;14.27;;;16.50;99.90;;;;;;5093299;28;20421;-62
2022/03/21 10:49:05;;;;;;;20.77;14.88;;;16.70;99.90;;;;;;5094050;28;20478;-63
2022/03/21 10:51:51;;;;;;;20.87;14.37;;;16.80;99.90;;;;;;5094565;28;20425;-63
2022/03/21 10:54:41;;;;;;;20.85;14.18;;;16.90;99.90;;;;;;5093460;28;20409;-64
2022/03/21 10:57:26;;;;;;;20.90;14.73;;;17.00;99.90;;;;;;5093240;28;20416;-64
2022/03/21 10:59:53;;;;;;;20.10;13.40;;;16.90;99.90;;;;;;5093632;28;20488;-64
2022/03/21 11:02:20;;;;;;;20.57;13.47;;;17.20;99.90;;;;;;5094240;28;20414;-63
2022/03/21 11:04:50;;;;;;;20.98;14.02;;;17.30;99.90;;;;;;5093498;28;20447;-65
2022/03/21 11:07:17;;;;;;;19.52;14.15;;;17.30;99.90;;;;;;5093304;28;20765;-69
2022/03/21 11:09:44;;;;;;;20.20;13.85;;;17.10;99.90;;;;;;5093508;28;20498;-64
2022/03/21 11:12:11;;;;;;;20.45;14.15;;;17.00;99.90;;;;;;5093286;28;20519;-67
2022/03/21 11:14:39;;;;;;;21.30;14.02;;;17.20;99.90;;;;;;5093561;28;20421;-66
2022/03/21 11:17:07;;;;;;;19.67;13.82;;;17.20;99.90;;;;;;5093190;28;20497;-65
2022/03/21 11:19:34;;;;;;;17.98;13.70;;;17.20;99.90;;;;;;5093904;28;20414;-63
2022/03/21 11:22:03;;;;;;;23.80;12.90;;;17.20;99.90;;;;;;5093586;28;20466;-64
2022/03/21 11:24:30;;;;;;;20.23;13.88;;;17.40;99.90;;;;;;5092376;28;20899;-64
2022/03/21 11:27:12;;;;;;;20.17;13.07;;;17.40;99.90;;;;;;5092747;28;20410;-65
2022/03/21 11:29:46;;;;;;;19.30;12.97;;;17.40;99.90;;;;;;5093460;28;20475;-64
2022/03/21 11:32:27;;;;;;;23.73;13.68;;;17.50;99.90;;;;;;5093604;28;20410;-64
2022/03/21 11:35:02;;;;;;;19.17;13.27;;;17.50;99.90;;;;;;5092979;28;20814;-63
2022/03/21 11:37:32;;;;;;;19.50;13.52;;;17.50;99.90;;;;;;5092248;28;20807;-64
2022/03/21 11:40:25;;;;;;;21.23;12.80;;;17.50;99.90;;;;;;5093394;28;20406;-64
2022/03/21 11:42:53;;;;;;;19.15;13.02;;;17.40;99.80;;;;;;5093291;28;20838;-63
2022/03/21 11:45:25;;;;;;;17.00;12.23;;;17.40;99.90;;;;;;5092757;28;20479;-63
2022/03/21 11:48:13;;;;;;;18.50;12.03;;;17.60;99.90;;;;;;5092607;28;20414;-64
2022/03/21 11:50:41;;;;;;;17.17;12.73;;;17.70;99.90;;;;;;5091656;28;20417;-63
2022/03/21 11:53:09;;;;;;;17.80;12.05;;;17.70;99.90;;;;;;5093027;28;20417;-63
2022/03/21 11:55:40;;;;;;;16.92;11.50;;;17.90;99.90;;;;;;5091769;28;20409;-64
2022/03/21 11:58:45;;;;;;;12.93;9.65;;;18.00;99.90;;;;;;5092122;28;20457;-64
2022/03/21 12:01:13;;;;;;;15.02;8.85;;;18.00;99.90;;;;;;5092354;28;21017;-63
2022/03/21 12:03:43;;;;;;;15.27;9.48;;;18.30;99.90;;;;;;5092342;28;20417;-64
2022/03/21 12:06:24;;;;;;;13.82;8.93;;;18.10;99.90;;;;;;5091916;28;20422;-64
2022/03/21 12:08:57;;;;;;;13.38;8.43;;;18.20;99.90;;;;;;5092163;28;20433;-63
2022/03/21 12:12:03;;;;;;;14.43;9.30;;;18.40;99.90;;;;;;5092592;28;20402;-64
2022/03/21 12:14:36;;;;;;;14.57;9.38;;;17.90;99.90;;;;;;5091663;28;20420;-64
2022/03/21 12:17:30;;;;;;;13.75;9.05;;;18.00;99.90;;;;;;5091989;28;20425;-64
2022/03/21 12:20:10;;;;;;;12.20;8.82;;;17.80;99.90;;;;;;5091737;28;20514;-63
2022/03/21 12:22:43;;;;;;;12.68;8.82;;;18.00;99.90;;;;;;5091739;28;20410;-64
2022/03/21 12:25:20;;;;;;;12.55;8.73;;;18.20;99.90;;;;;;5091589;28;20475;-64
2022/03/21 12:27:49;;;;;;;13.83;9.13;;;17.90;99.90;;;;;;5091243;28;20897;-66
2022/03/21 12:30:34;;;;;;;12.95;8.82;;;17.90;99.90;;;;;;5091997;28;20502;-65
2022/03/21 12:33:01;;;;;;;13.40;9.10;;;17.80;99.90;;;;;;5091514;28;20425;-66
2022/03/21 12:35:54;;;;;;;11.95;8.35;;;18.10;99.90;;;;;;5091700;28;20413;-68
2022/03/21 12:38:24;;;;;;;12.75;8.52;;;18.40;99.90;;;;;;5091767;28;20413;-68
2022/03/21 12:40:53;;;;;;;12.55;8.55;;;18.30;99.90;;;;;;5091831;28;20410;-68
2022/03/21 12:43:22;;;;;;;12.80;8.37;;;18.30;99.90;;;;;;5091629;28;20971;-67
2022/03/21 12:45:50;;;;;;;15.27;9.00;;;18.50;99.90;;;;;;5090803;28;20417;-65
2022/03/21 12:48:18;;;;;;;12.13;8.90;;;18.40;99.90;;;;;;5091412;28;20467;-65
2022/03/21 12:50:48;;;;;;;10.43;8.30;;;18.50;99.90;;;;;;5091472;28;20410;-65
2022/03/21 12:53:18;;;;;;;12.98;8.57;;;18.50;99.90;;;;;;5091758;28;20510;-65
2022/03/21 12:55:47;;;;;;;12.68;8.20;;;18.60;99.90;;;;;;5090945;28;20418;-65
2022/03/21 12:58:18;;;;;;;12.23;7.55;;;18.60;99.90;;;;;;5090574;28;20421;-64
2022/03/21 13:00:45;;;;;;;13.95;7.90;;;18.80;99.90;;;;;;5091744;28;20456;-65
2022/03/21 13:03:14;;;;;;;9.50;7.65;;;18.80;99.90;;;;;;5089961;28;20410;-64
2022/03/21 13:11:22;;;;;;;10.68;7.30;;;18.40;99.90;;;;;;5091417;28;20397;-63
2022/03/21 13:13:53;;;;;;;11.18;7.60;;;18.70;99.90;;;;;;5091018;28;20803;-64
2022/03/21 13:16:21;;;;;;;13.07;8.23;;;18.80;99.90;;;;;;5089081;28;20414;-64